Tiempo atmosférico en la estación meteorológica de Córdoba Aeropuerto, Córdoba (90 m.)



Fecha
DESCASC
Temp. máxima en grados centígrados (hora)
DESCASC
Temp. mínima en grados centígrados (hora)
DESCASC
Temp. media en grados centígrados
DESCASC
Racha de viento máxima en m/sg (hora)
DESCASC
Velocidad máxima media en intervalos de 10 minutos(hora)
DESCASC
Precipitaciones diarias en mm
DESCASC
Precipitaciones de 00:00 a 06:00 en mm
DESCASC
Precipitaciones de 06:00 a 12:00 en mm
DESCASC
Precipitaciones de 12:00 a 18:00 en mm
DESCASC
Precipitaciones de 18:00 a 24:00 en mm
DESCASC
23-05-2018 29.4 (18:00) 12.7 (06:40) 21 5.83 (21:10) 3.89 (21:10) 0 0 0 0 0
22-05-2018 28.5 (18:00) 15.1 (01:40) 21.8 6.67 (18:30) 3.89 (18:30) 0 0 0 0 0
21-05-2018 27.1 (16:40) 12.3 (07:20) 19.7 12.5 (17:50) 7.5 (17:50) 1 0 0 1 0
20-05-2018 25.9 (17:30) 12.5 (00:00) 19.2 9.17 (13:50) 6.39 (13:50) 0.2 0 0 0 0.2
19-05-2018 29.2 (14:30) 15.5 (00:00) 22.4 12.5 (17:10) 7.78 (16:20) 0 0 0 0 0
18-05-2018 26.9 (13:30) 13.8 (00:00) 20.3 11.39 (15:50) 8.33 (15:50) 0 0 0 0 0
17-05-2018 30.6 (18:20) 11.3 (00:00) 21 10.83 (21:50) 7.78 (21:40) 0 0 0 0 0
16-05-2018 31.1 (17:00) 11 (00:00) 21.1 8.89 (15:20) 5.28 (17:20) 0 0 0 0 0
15-05-2018 29.8 (18:50) 11.4 (00:00) 20.6 10.28 (12:00) 6.39 (12:00) 0 0 0 0 0
14-05-2018 28.3 (17:00) 7.6 (00:00) 17.9 8.33 (18:40) 5 (11:20) -- -- 0 0 0
13-05-2018 24.5 (19:10) 8.7 (00:00) 16.6 9.17 (05:10) 5 (21:10) 0 0 0 0 0
12-05-2018 25.5 (17:10) 12.8 (00:00) 19.2 11.39 (17:10) 7.22 (19:40) 0 0 0 0 0
11-05-2018 26.9 (16:30) 10.8 (07:10) 18.8 10.28 (17:20) 6.94 (17:20) 0 0 0 0 0
10-05-2018 26.5 (16:40) 16 (00:00) 21.3 8.33 (03:00) 5.28 (02:30) 0 0 0 0 0
09-05-2018 23.2 (17:30) 16.2 (00:00) 19.7 10.83 (18:30) 7.78 (18:10) 0.1 0 0.1 0 0
08-05-2018 27.6 (15:00) 13.5 (00:00) 20.6 -- (--) -- (--) -- 0 -- 0.1 0
07-05-2018 -- (--) -- (--) -- -- (--) -- (--) -- 0 0 -- 0
06-05-2018 29.5 (17:50) 13.7 (00:00) 21.6 12.78 (19:20) 7.78 (19:30) 25.6 0 0 0 25.6
05-05-2018 29.2 (18:20) 9.8 (00:00) 19.5 6.67 (22:50) 3.89 (22:50) 0 0 0 0 0
04-05-2018 27.3 (17:10) 10.2 (00:00) 18.7 -- (--) -- (--) -- 0 -- 0 0
03-05-2018 25.4 (19:20) 6.8 (00:00) 16.1 9.17 (20:00) 6.11 (20:20) 0 0 0 0 0
02-05-2018 23.1 (17:30) 5 (00:00) 14.1 7.78 (16:10) 4.72 (16:10) 0 0 0 0 0
01-05-2018 17.5 (18:10) 5.5 (07:20) 11.5 12.5 (13:40) 7.22 (13:50) 4.2 0 0.4 3.8 0
30-04-2018 20.3 (17:00) 5.3 (00:00) 12.8 10.28 (20:50) 6.67 (20:50) 0 0 0 0 0
29-04-2018 20.5 (16:40) 7.8 (00:00) 14.2 13.89 (15:10) 8.61 (13:50) 0.7 0 0 0 0.7
28-04-2018 21.4 (16:30) 11.3 (00:00) 16.3 -- (--) -- (--) -- 0 0 -- --

Gráficas

Temp. máximas Temp. mínimas Temp. medias Precipitaciones Rachas de viento máximas Velocidades máximas media en intervalos de 10 minutos

Datos horarios

Fecha y hora oficial Temperatura (ºC) Velocidad del viento (km/h) Dirección del viento Racha (km/h) Dirección de racha Precipitación (mm) Presión (hPa) Tendencia (hPa) Humedad (%)
2018-05-27 23:00:00 20 17 Sudoeste 30 Oeste 0 1004.9 2.1 60
2018-05-27 22:00:00 21.4 23 Sudoeste 35 Oeste 0 1003.9 1.5 54
2018-05-27 21:00:00 23.2 19 Oeste 32 Oeste 0 1003.3 0.2 46
2018-05-27 20:00:00 24.8 16 Oeste 30 Oeste 0 1002.8 -0.1 42
2018-05-27 19:00:00 25.9 19 Oeste 33 Oeste 0 1002.4 -0.9 38
2018-05-27 18:00:00 26.5 21 Sudoeste 35 Oeste 0 1003.1 -1.3 37
2018-05-27 17:00:00 26.4 22 Oeste 37 Oeste 0 1002.9 -1.6 36
2018-05-27 16:00:00 25.4 18 Oeste 30 Oeste 0 1003.3 -1.6 42
2018-05-27 15:00:00 24.7 21 Oeste 35 Sudoeste 0 1004.4 -0.9 47
2018-05-27 14:00:00 24.4 21 Sudoeste 37 Oeste 0 1004.5 -0.5 48
2018-05-27 13:00:00 23 14 Oeste 22 Oeste 0 1004.9 0 56
2018-05-27 12:00:00 20.4 13 Oeste 22 Oeste 0 1005.3 0.8 68
2018-05-27 11:00:00 19.1 10 Oeste 18 Oeste 0 1005 0.8 75
2018-05-27 10:00:00 16.9 10 Oeste 18 Oeste 0 1004.9 1.3 86
2018-05-27 09:00:00 16.2 12 Oeste 17 Oeste 0 1004.5 1.4 89
2018-05-27 08:00:00 15.9 9 Oeste 15 Oeste 0 1004.2 1.5 88
2018-05-27 07:00:00 15.5 9 Oeste 13 Oeste 0 1003.6 0.9 90
2018-05-27 06:00:00 14.5 8 Sudoeste 13 Sudoeste 0 1003.1 0 89
2018-05-27 05:00:00 15.2 9 Sudoeste 15 Oeste 0 1002.7 0.4 86
2018-05-27 04:00:00 16.3 10 Sudoeste 17 Oeste 0 1002.7 0.2 79
2018-05-27 03:00:00 17.1 14 Sudoeste 18 Sudoeste 0 1003.1 0.6 76
2018-05-27 02:00:00 16.4 9 Sudoeste 13 Sudoeste 0 1002.3 0.2 78
2018-05-27 01:00:00 16.8 9 Oeste 11 Oeste 0 1002.5 1.2 75
2018-05-27 00:00:00 18.5 9 Sudoeste 15 Oeste 0 1002.5 1.5 65
2018-05-26 23:00:00 19.6 9 Oeste 15 Oeste 0 1002.1 1.2 61
2018-05-26 22:00:00 21.7 12 Oeste 21 Oeste 0 1001.3 0.7 52
2018-05-26 21:00:00 24.4 15 Oeste 24 Oeste 0 1001 0.2 42
2018-05-26 20:00:00 25.3 13 Oeste 22 Oeste 0 1000.9 -0.4 38
2018-05-26 19:00:00 26.8 16 Oeste 24 Oeste 0 1000.6 -0.8 34
2018-05-26 18:00:00 26.8 13 Oeste 24 Oeste 0 1000.8 -1.1 34
2018-05-26 17:00:00 26.4 10 Oeste 26 Sudoeste 0 1001.3 -1.1 35
2018-05-26 16:00:00 25.7 6 Oeste 22 Sudoeste 0 1001.4 -1.2 39
2018-05-26 15:00:00 25.1 6 Sur 21 Sudoeste 0 1001.9 -0.7 42
2018-05-26 14:00:00 24.4 6 Este 17 Sur 0 1002.4 -0.5 44
2018-05-26 13:00:00 23.4 5 Sur 13 Sur 0 1002.6 -0.9 48
2018-05-26 12:00:00 22.7 8 Sudoeste 15 Sudoeste 0 1002.6 -0.9 51
2018-05-26 11:00:00 21.1 8 Sur 15 Sur 0 1002.9 -0.7 60
2018-05-26 10:00:00 19.6 5 Oeste 11 Oeste 0 1003.5 0.5 68
2018-05-26 09:00:00 18 2 Oeste 8 Oeste 0 1003.5 0.9 72
2018-05-26 08:00:00 13.8 5 Sudeste 8 Sudeste 0 1003.6 0.9 92
2018-05-26 07:00:00 12.8 0 Calma 9 Sudoeste 0 1003 0.1 94
2018-05-26 06:00:00 12.9 0 Calma 5 Este 0 1002.6 -0.4 90
2018-05-26 05:00:00 13.7 2 Este 13 Oeste 0 1002.7 -0.5 87
2018-05-26 04:00:00 14.8 9 Oeste 13 Oeste 0 1002.9 -0.6 86
2018-05-26 03:00:00 14.6 5 Sudoeste 11 Sur 0 1003 -0.4 85
2018-05-26 02:00:00 15.7 3 Sudeste 11 Sudoeste 0 1003.2 0.2 78
2018-05-26 01:00:00 17.3 8 Sudoeste 17 Oeste 0 1003.5 1.3 72
2018-05-26 00:00:00 18 11 Oeste 17 Oeste 0 1003.4 1.6 69
2018-05-25 23:00:00 17.9 5 Sur 9 Oeste 0 1003 1.5 69
2018-05-25 22:00:00 19 9 Oeste 24 Oeste 0 1002.2 0.8 63
2018-05-25 21:00:00 21.4 17 Oeste 26 Oeste 0 1001.8 0.1 51
2018-05-25 20:00:00 21.9 10 Oeste 18 Oeste 0 1001.5 -0.1 51
2018-05-25 19:00:00 22.2 15 Oeste 28 Oeste 0 1001.4 -0.8 48
2018-05-25 18:00:00 23.7 21 Oeste 35 Oeste 0 1001.7 -0.5 46
2018-05-25 17:00:00 24.1 12 Sur 26 Sudoeste 0 1001.6 -0.7 40
2018-05-25 16:00:00 22.3 19 Oeste 37 Oeste 0 1002.2 -0.9 49
2018-05-25 15:00:00 22.7 20 Sudoeste 30 Oeste 0 1002.2 -1.2 43
2018-05-25 14:00:00 24.2 11 Oeste 24 Oeste 0 1002.3 -1.2 41
2018-05-25 13:00:00 21.8 8 Sudeste 18 Oeste 0 1003.1 -0.6 53
2018-05-25 12:00:00 19 9 Oeste 17 Oeste 0 1003.4 0.1 69
2018-05-25 11:00:00 18.6 7 Oeste 17 Oeste 0.1 1003.5 0.4 75
2018-05-25 10:00:00 18.8 3 Este 9 Sudeste 0 1003.7 0.9 68
2018-05-25 09:00:00 17.3 5 Nordeste 9 Este 0 1003.3 0.4 79
2018-05-25 08:00:00 14.9 0 Calma 8 Oeste 0 1003.1 0.1 90
2018-05-25 07:00:00 14.1 5 Sudoeste -- -- 0 1002.8 -0.6 90
2018-05-25 06:00:00 15.1 9 Sudoeste 13 Sudoeste 0 1002.9 -0.6 88
2018-05-25 05:00:00 15.5 3 Sudoeste 8 Sudoeste 0 1003 -1.2 87
2018-05-25 04:00:00 16 0 Calma 9 Sudoeste 0 1003.4 -0.7 85
2018-05-25 03:00:00 16 3 Oeste 13 Sudoeste 0 1003.5 -0.8 87
2018-05-25 02:00:00 16.2 9 Sudoeste 24 Sudoeste 0 1004.2 0.5 80
2018-05-25 01:00:00 16 18 Oeste 33 Sudoeste 0 1004.1 1 80
2018-05-25 00:00:00 16.3 13 Oeste 21 Oeste 0 1004.3 1.9 74
2018-05-24 23:00:00 16.8 8 Sudoeste 32 Oeste 0 1003.7 2.2 74
2018-05-24 22:00:00 18 16 Oeste 35 Oeste 0 1003.1 2 67
2018-05-24 21:00:00 19.8 25 Sudoeste 41 Oeste 0 1002.4 1.9 64
2018-05-24 20:00:00 22.7 27 Sudoeste 46 Oeste 0 1001.5 1 51
2018-05-24 19:00:00 23.6 27 Oeste 48 Oeste 0 1001.1 0.5 49
2018-05-24 18:00:00 25.4 27 Sudoeste 39 Oeste 0 1000.5 -0.1 46
2018-05-24 17:00:00 25.8 23 Oeste 39 Oeste 0 1000.5 -0.4 45
2018-05-24 16:00:00 26.9 26 Oeste 46 Oeste 0 1000.6 -0.5 43
2018-05-24 15:00:00 27.8 18 Oeste 35 Oeste 0 1000.6 -- 39
2018-05-24 14:00:00 27.1 21 Oeste 35 Oeste 0 1000.9 -0.8 44
2018-05-24 13:00:00 26.1 14 Oeste 24 Oeste 0 1001.1 -1 48
2018-05-24 12:00:00 -- -- -- -- -- -- -- -- --
2018-05-24 11:00:00 22.9 3 Oeste 13 Sudoeste 0 1001.7 -0.5 59
2018-05-24 10:00:00 21 3 Sur 11 Sur 0 1002.1 -0.1 68
2018-05-24 09:00:00 18.4 9 Sur 13 Sur 0 1001.8 -0.3 83
2018-05-24 08:00:00 17.1 6 Oeste 11 Oeste 0 1002.2 0 88
2018-05-24 07:00:00 16.9 0 Calma 9 Sudoeste 0 1002.2 0.1 92
2018-05-24 06:00:00 17 4 Este 9 Este 0.2 1002.1 -1 89
2018-05-24 05:00:00 17.4 3 Nordeste 13 Sudoeste 0 1002.2 -0.9 80
2018-05-24 04:00:00 18 4 Sudoeste 18 Sudoeste 0 1002.1 -0.8 77
2018-05-24 03:00:00 19.2 11 Sudoeste 17 Sudoeste 0 1003.1 0 73
2018-05-24 02:00:00 19.8 10 Oeste 17 Oeste 0 1003.1 0.1 65
2018-05-24 01:00:00 20.3 8 Sur 13 Sur 0 1002.9 0.5 65
2018-05-24 00:00:00 21.7 0 Calma 5 Sudoeste 0 1003.1 0.7 60
2018-05-23 23:00:00 23 4 Sudoeste 13 Sudeste 0 1003 0.8 54
2018-05-23 22:00:00 24.7 7 Este 21 Este 0 1002.4 0.2 45
2018-05-23 21:00:00 26.1 9 Este 18 Este 0 1002.4 0.1 39
2018-05-23 20:00:00 27.5 9 Este 18 Este 0 1002.2 -0.7 36
2018-05-23 19:00:00 28.5 3 Este 17 Este 0 1002.2 -1 32
2018-05-23 18:00:00 29.1 10 Este 15 Este 0 1002.3 -1.4 30
2018-05-23 17:00:00 28.2 7 Nordeste 17 Oeste 0 1002.9 -1.2 32
2018-05-23 16:00:00 28.3 5 Norte 13 Norte 0 1003.2 -1.3 33
2018-05-23 15:00:00 27.7 6 Sudeste 18 Este 0 1003.7 -1 37
2018-05-23 14:00:00 27.8 7 Este 15 Este 0 1004.1 -0.9 32
2018-05-23 13:00:00 26.3 6 Nordeste 13 Este 0 1004.5 -0.7 35
2018-05-23 12:00:00 24.7 5 Nordeste 13 Este 0 1004.7 -0.4 41
2018-05-23 11:00:00 23.6 7 Este 15 Este 0 1005 0.5 48
2018-05-23 10:00:00 20.6 0 Calma 9 Este 0 1005.2 1.1 60
2018-05-23 09:00:00 16.9 0 Calma -- -- 0 1005.1 1.1 72
2018-05-23 08:00:00 13.8 0 Calma -- -- 0 1004.5 0.6 86
2018-05-23 07:00:00 12.8 0 Calma -- -- 0 1004.1 0.2 87
2018-05-23 06:00:00 13 0 Calma -- -- 0 1004 0.3 86
2018-05-23 05:00:00 14 0 Calma 8 Noroeste 0 1003.9 0 83
2018-05-23 04:00:00 14.1 0 Calma 11 Sur 0 1003.9 -0.2 83
2018-05-23 03:00:00 14.9 0 Calma 8 Sur 0 1003.7 -0.2 78
2018-05-23 02:00:00 16.4 0 Calma -- -- 0 1003.9 0.4 72
2018-05-23 01:00:00 17.4 0 Calma 8 Sur 0 1004.1 1.5 70
2018-05-23 00:00:00 18.4 6 Sur 9 Sur 0 1003.9 1.6 63
2018-05-22 23:00:00 20.4 0 Calma 11 Oeste 0 1003.5 1.4 57
2018-05-22 22:00:00 22.3 8 Oeste 13 Oeste 0 1002.6 0.4 46
2018-05-22 21:00:00 26 8 Oeste 13 Sudoeste 0 1002.3 -0.1 31
2018-05-22 20:00:00 26.5 9 Oeste 21 Oeste 0 1002.1 -0.5 28
2018-05-22 19:00:00 28.1 13 Oeste 24 Oeste 0 1002.2 -0.9 28
2018-05-22 18:00:00 28.3 7 Oeste 21 Sudoeste 0 1002.4 -1.3 25
2018-05-22 17:00:00 28.2 9 Oeste 21 Oeste 0 1002.6 -1.5 31
2018-05-22 16:00:00 27.3 6 Oeste 18 Oeste 0 1003.1 -1.5 34
2018-05-22 15:00:00 26.1 8 Oeste 17 Sudoeste 0 1003.7 -1.3 41
2018-05-22 14:00:00 24 6 Sudoeste 17 Sudoeste 0 1004.1 -1 49
2018-05-22 13:00:00 23.2 3 Sur 13 Este 0 1004.6 -0.4 52
2018-05-22 12:00:00 21.1 3 Este 15 Este 0 1005 0.2 60
2018-05-22 11:00:00 18.1 5 Nordeste 11 Nordeste 0 1005.1 0.5 73
2018-05-22 10:00:00 17.1 0 Calma 9 Este 0 1005 0.9 79
2018-05-22 09:00:00 16.1 2 Este 9 Este 0 1004.8 1.3 85
2018-05-22 08:00:00 15.5 0 Calma 4 Oeste 0 1004.6 1.2 87
2018-05-22 07:00:00 15.3 0 Calma 15 Oeste 0 1004.1 0.5 89
2018-05-22 06:00:00 15.4 6 Oeste 15 Sudoeste 0 1003.5 0 91
2018-05-22 05:00:00 15.4 7 Oeste 15 Sudoeste 0 1003.4 -0.3 91
2018-05-22 04:00:00 15.5 12 Sudoeste 17 Sudoeste 0 1003.6 -0.3 91
2018-05-22 03:00:00 15.5 9 Sudoeste 17 Sudoeste 0 1003.5 0 91
2018-05-22 02:00:00 15.3 9 Sudoeste 13 Sudoeste 0 1003.7 0.7 92
2018-05-22 01:00:00 15.9 6 Sur 8 Sur 0 1003.9 1.6 87
2018-05-22 00:00:00 16.5 6 Sudoeste 11 Noroeste 0 1003.5 1.5 86
2018-05-21 23:00:00 17.3 10 Oeste 13 Noroeste 0 1003 1.8 82
2018-05-21 22:00:00 18.4 5 Oeste 21 Sudoeste 0 1002.3 1.8 74
2018-05-21 21:00:00 20.3 13 Sudoeste 21 Sudoeste 0 1002 1.9 66
2018-05-21 20:00:00 20.2 12 Sudeste 35 Sur 0 1001.2 1.1 69
2018-05-21 19:00:00 24 17 Noroeste 32 Noroeste 0 1000.5 0 48
2018-05-21 18:00:00 20.8 24 Noroeste 45 Noroeste 1 1000.1 -1 69
2018-05-21 17:00:00 26.5 16 Oeste 33 Oeste 0 1000.1 -1.7 35
2018-05-21 16:00:00 26.3 19 Sudoeste 35 Sudoeste 0 1000.5 -1.8 37
2018-05-21 15:00:00 25 15 Sudoeste 28 Oeste 0 1001.1 -1.6 44
2018-05-21 14:00:00 24.1 13 Sudoeste 22 Sudoeste 0 1001.8 -0.9 50
2018-05-21 13:00:00 21.9 12 Oeste 18 Oeste 0 1002.3 -0.1 61
2018-05-21 12:00:00 20.4 8 Sudoeste 13 Sudoeste 0 1002.7 0.5 61
2018-05-21 11:00:00 19.2 3 Oeste 9 Oeste 0 1002.7 0.7 69
2018-05-21 10:00:00 17.3 0 Calma -- -- 0 1002.4 0.8 80
2018-05-21 09:00:00 16.6 0 Calma 5 Sudeste 0 1002.2 0.5 81
2018-05-21 08:00:00 13.5 0 Calma -- -- 0 1002 0.4 91
2018-05-21 07:00:00 12.7 0 Calma -- -- 0 1001.6 -0.3 94
2018-05-21 06:00:00 13 0 Calma -- -- 0 1001.7 -0.5 93
2018-05-21 05:00:00 13.5 0 Calma -- -- 0 1001.6 -1 92
2018-05-21 04:00:00 14.2 0 Calma -- -- 0 1001.9 -0.7 92
2018-05-21 03:00:00 15.3 0 Calma -- -- 0 1002.2 -0.9 88
2018-05-21 02:00:00 15.9 0 Calma 9 Norte 0 1002.6 0.1 86
2018-05-21 01:00:00 15.7 4 Nordeste 11 Sur 0 1002.6 0.6 87
2018-05-21 00:00:00 15.8 9 Sur 13 Sur 0 1003.1 0.3 86
2018-05-20 23:00:00 16.6 4 Sudoeste 17 Noroeste 0 1002.5 0.4 82
2018-05-20 22:00:00 16.3 10 Noroeste 17 Noroeste 0 1002 0.7 84
2018-05-20 21:00:00 17.3 14 Oeste 32 Sur 0 1002.8 2.3 79
2018-05-20 20:00:00 19 15 Sur 28 Oeste 0.2 1002.1 1.4 76
2018-05-20 19:00:00 21.4 17 Oeste 30 Oeste 0 1001.3 0.5 60
2018-05-20 18:00:00 24.2 12 Oeste 18 Sudoeste 0 1000.5 -1.7 43
2018-05-20 17:00:00 24.9 11 Oeste 17 Sudoeste 0 1000.7 -2.4 44
2018-05-20 16:00:00 20.9 10 Noroeste 21 Noroeste 0 1000.8 -2.4 59
2018-05-20 15:00:00 19 16 Oeste 32 Noroeste 0 1002.2 -1.6 68
2018-05-20 14:00:00 20.4 19 Norte 33 Noroeste 0 1003.1 -0.9 52
2018-05-20 13:00:00 24.6 4 Este 21 Este 0 1003.2 -1 47
2018-05-20 12:00:00 23 2 Sudeste 13 Este 0 1003.8 -0.4 50
2018-05-20 11:00:00 20.9 3 Nordeste 15 Nordeste 0 1004 0 61
2018-05-20 10:00:00 17.6 7 Nordeste 11 Este 0 1004.2 0.3 74
2018-05-20 09:00:00 17.2 0 Calma 9 Este 0 1004.2 0.4 75
2018-05-20 08:00:00 13.6 0 Calma -- -- 0 1004 0.3 91
2018-05-20 07:00:00 12.6 0 Calma 8 Sur 0 1003.9 0 91
2018-05-20 06:00:00 12.8 0 Calma 5 Sur 0 1003.8 -0.5 91
2018-05-20 05:00:00 13.3 0 Calma 9 Sudoeste 0 1003.7 -1 90
2018-05-20 04:00:00 13.9 4 Sur 9 Sur 0 1003.9 -0.9 89
2018-05-20 03:00:00 14.8 0 Calma 5 Sudoeste 0 1004.3 -0.5 85
2018-05-20 02:00:00 15.3 0 Calma 13 Sur 0 1004.7 0.2 82
2018-05-20 01:00:00 16.5 4 Sudoeste 11 Sudoeste 0 1004.8 0.7 79
2018-05-20 00:00:00 17.5 9 Sur 11 Sur 0 1004.8 1.3 76
2018-05-19 23:00:00 18.3 6 Oeste 21 Sudoeste 0 1004.5 1.2 71
2018-05-19 22:00:00 19.8 14 Sudoeste 24 Sudoeste 0 1004.1 0.5 62
2018-05-19 21:00:00 21.2 15 Sudoeste 30 Sudoeste 0 1003.5 0.2 54
2018-05-19 20:00:00 22.1 17 Sudoeste 28 Sudoeste 0 1003.3 0 50
2018-05-19 19:00:00 22.5 13 Oeste 22 Oeste 0 1003.6 0.6 50
2018-05-19 18:00:00 21.9 15 Sudoeste 45 Sur 0 1003.3 0.1 54
2018-05-19 17:00:00 24.2 17 Norte 42 Norte 0 1003.3 -0.6 36
2018-05-19 16:00:00 27.1 24 Norte 42 Noroeste 0 1003 -1.6 31
2018-05-19 15:00:00 28.6 9 Norte 32 Norte 0 1003.2 -1.8 29
2018-05-19 14:00:00 27.9 5 Este 22 Este 0 1003.9 -1.3 31
2018-05-19 13:00:00 26.5 9 Este 21 Este 0 1004.6 -0.7 39
2018-05-19 12:00:00 24.9 6 Este 17 Este 0 1005 0 45
2018-05-19 11:00:00 22.6 2 Nordeste 13 Nordeste 0 1005.2 0.3 53
2018-05-19 10:00:00 19.6 0 Calma 5 Sudeste 0 1005.3 0.7 64
2018-05-19 09:00:00 17.6 0 Calma 5 Este 0 1005 0.5 70
2018-05-19 08:00:00 16 0 Calma 2 Oeste 0 1004.9 0.3 83
2018-05-19 07:00:00 15.6 0 Calma 11 Sudeste 0 1004.6 -0.1 81
2018-05-19 06:00:00 15.8 0 Calma 9 Sur 0 1004.5 -0.4 84
2018-05-19 05:00:00 16.9 0 Calma 5 Este 0 1004.6 -0.4 72
2018-05-19 04:00:00 16.6 0 Calma -- -- 0 1004.7 -0.4 70
2018-05-19 03:00:00 16.6 0 Calma 8 Sudoeste 0 1004.9 0 68
2018-05-19 02:00:00 16.5 3 Sur 8 Sur 0 1005 0.9 68
2018-05-19 01:00:00 17.9 0 Calma 11 Oeste 0 1005.1 1.4 55
2018-05-19 00:00:00 18.8 8 Sudoeste 13 Oeste 0 1004.9 1.5 53
2018-05-18 23:00:00 20.2 0 Calma 18 Sudoeste 0 1004.1 1.3 41
2018-05-18 22:00:00 22.2 16 Sur 26 Sur 0 1003.7 1.2 39
2018-05-18 21:00:00 23 5 Este 13 Este 0 1003.4 0.8 46
2018-05-18 20:00:00 24.7 7 Este 15 Sudoeste 0 1002.8 -0.3 42
2018-05-18 19:00:00 25 9 Sur 18 Sudeste 0 1002.5 -1 40
2018-05-18 18:00:00 24.4 11 Sudeste 24 Este 0 1002.6 -1 41
2018-05-18 17:00:00 25.2 16 Este 33 Este 0 1003.1 -1.3 35
2018-05-18 16:00:00 25.2 27 Este 41 Este 0 1003.5 -1.4 39
2018-05-18 15:00:00 24.5 20 Norte 32 Norte 0 1003.6 -1.3 46
2018-05-18 14:00:00 25.7 3 Sur 18 Sur 0 1004.4 -0.6 33
2018-05-18 13:00:00 24.6 9 Oeste 17 Oeste 0 1004.9 -0.1 39
2018-05-18 12:00:00 23.8 3 Sudeste 11 Sudeste 0 1004.9 0.2 44
2018-05-18 11:00:00 21.5 3 Noroeste 13 Norte 0 1005 0.6 53
2018-05-18 10:00:00 21.2 0 Calma 8 Este 0 1005 1 57
2018-05-18 09:00:00 18 2 Este 8 Este 0 1004.7 1 69
2018-05-18 08:00:00 15.1 0 Calma -- -- 0 1004.4 0.7 82
2018-05-18 07:00:00 14 0 Calma -- -- 0 1004 0 84
2018-05-18 06:00:00 14.6 0 Calma -- -- 0 1003.7 -0.3 81
2018-05-18 05:00:00 15.2 0 Calma 8 Sudoeste 0 1003.7 -0.6 77
2018-05-18 04:00:00 16 3 Sudoeste 11 Oeste 0 1004 -0.2 74
2018-05-18 03:00:00 16.3 4 Sudoeste 11 Sudoeste 0 1004 0.3 72
2018-05-18 02:00:00 17 6 Oeste 11 Oeste 0 1004.3 1.5 69
2018-05-18 01:00:00 17.9 7 Sudoeste 17 Sur 0 1004.2 2.9 64
2018-05-18 00:00:00 19.5 12 Sudoeste 24 Sur 0 1003.7 3.7 55
2018-05-17 23:00:00 21.1 16 Sudoeste 37 Sudoeste 0 1002.8 3.2 50
2018-05-17 22:00:00 22.9 25 Sudoeste 39 Sur 0 1001.3 1.7 44
2018-05-17 21:00:00 27.4 6 Sudoeste 13 Oeste 0 1000 0.3 25
2018-05-17 20:00:00 29.7 6 Sudoeste 17 Sur 0 999.6 -0.3 18
2018-05-17 19:00:00 30.1 3 Este 24 Sudeste 0 999.6 -0.8 17
2018-05-17 18:00:00 30 5 Sudoeste 18 Este 0 999.7 -1.2 19
2018-05-17 17:00:00 29.2 7 Norte 22 Nordeste 0 999.9 -1.5 21
2018-05-17 16:00:00 29 12 Nordeste 22 Nordeste 0 1000.4 -1.6 21
2018-05-17 15:00:00 28.7 14 Este 28 Este 0 1000.9 -1.3 22
2018-05-17 14:00:00 27.4 9 Este 24 Nordeste 0 1001.4 -0.8 25
2018-05-17 13:00:00 25.7 12 Este 28 Este 0 1002 -0.7 28
2018-05-17 12:00:00 24.8 14 Este 26 Este 0 1002.2 -0.5 28
2018-05-17 11:00:00 21.9 15 Nordeste 24 Nordeste 0 1002.2 -0.2 35
2018-05-17 10:00:00 19.6 5 Este 11 Sudeste 0 1002.7 0.8 49
2018-05-17 09:00:00 17 0 Calma 13 Sudeste 0 1002.7 0.7 59
2018-05-17 08:00:00 13.1 0 Calma -- -- 0 1002.4 0.2 79
2018-05-17 07:00:00 11.3 0 Calma 4 Oeste 0 1001.9 -0.5 83
2018-05-17 06:00:00 12 4 Oeste 8 Sur 0 1002 0 83
2018-05-17 05:00:00 13.1 5 Sur -- -- 0 1002.2 0.7 79
2018-05-17 04:00:00 13.7 3 Sudeste 9 Sur 0 1002.4 1 76
2018-05-17 03:00:00 14.8 0 Calma 9 Sur 0 1002 1.1 73
2018-05-17 02:00:00 15.9 6 Oeste 11 Oeste 0 1001.5 1.5 70
2018-05-17 01:00:00 17.3 8 Sur 13 Sudoeste 0 1001.4 2.7 60
2018-05-17 00:00:00 19.2 4 Oeste 15 Sur 0 1000.9 3 53
2018-05-16 23:00:00 21.1 9 Sur 22 Sur 0 1000 2.4 44
2018-05-16 22:00:00 23.3 10 Sur 21 Sur 0 998.7 0.8 37
2018-05-16 21:00:00 28.1 7 Nordeste 21 Este 0 997.9 -0.4 24
2018-05-16 20:00:00 30 13 Este 28 Este 0 997.6 -1.1 20
2018-05-16 19:00:00 30.5 17 Nordeste 30 Nordeste 0 997.9 -1.6 18
2018-05-16 18:00:00 30.6 17 Nordeste 32 Nordeste 0 998.3 -2 16
2018-05-16 17:00:00 30.9 15 Este 32 Este 0 998.7 -2.6 18
2018-05-16 16:00:00 29.5 13 Nordeste 32 Nordeste 0 999.5 -2.6 23
2018-05-16 15:00:00 28.8 12 Nordeste 24 Nordeste 0 1000.3 -2.2 25
2018-05-16 14:00:00 27.7 10 Este 22 Nordeste 0 1001.3 -1.4 26
2018-05-16 13:00:00 26.1 11 Nordeste 22 Nordeste 0 1002.1 -0.9 30
2018-05-16 12:00:00 24.3 14 Este 22 Este 0 1002.5 -0.8 33
2018-05-16 11:00:00 21.9 2 Nordeste 9 Sur 0 1002.7 -0.4 39
2018-05-16 10:00:00 19.5 6 Este 11 Este 0 1003 0.3 49
2018-05-16 09:00:00 16.6 0 Calma 5 Este 0 1003.3 0.7 63
2018-05-16 08:00:00 12.5 0 Calma -- -- 0 1003.1 0.3 81
2018-05-16 07:00:00 11.2 0 Calma -- -- 0 1002.7 -0.3 83
2018-05-16 06:00:00 11.8 0 Calma -- -- 0 1002.6 -0.5 81
2018-05-16 05:00:00 12.5 0 Calma 4 Sur 0 1002.8 -0.5 80
2018-05-16 04:00:00 13.4 0 Calma 11 Oeste 0 1003 0 74
2018-05-16 03:00:00 14.2 3 Sudoeste 9 Sur 0 1003.1 0.1 70
2018-05-16 02:00:00 15.3 9 Sudoeste 15 Oeste 0 1003.3 0.6 65
2018-05-16 01:00:00 16.5 4 Sudeste 9 Sudeste 0 1003 0.9 60
2018-05-16 00:00:00 17.8 3 Oeste 11 Este 0 1003 1.3 59
2018-05-15 23:00:00 20.8 7 Nordeste 11 Nordeste 0 1002.7 1.5 38
2018-05-15 22:00:00 22.8 7 Nordeste 13 Nordeste 0 1002.1 0.8 32
2018-05-15 21:00:00 28.4 0 Calma 9 Sur 0 1001.7 0 24
2018-05-15 20:00:00 29 4 Sudeste 15 Sur 0 1001.2 -1.1 20
2018-05-15 19:00:00 29.7 7 Sudoeste 18 Sur 0 1001.3 -2 19
2018-05-15 18:00:00 29.2 5 Sur 17 Sudeste 0 1001.7 -2.3 19
2018-05-15 17:00:00 29.1 5 Nordeste 22 Este 0 1002.3 -2.5 19
2018-05-15 16:00:00 28.7 6 Sudeste 24 Este 0 1003.3 -2.2 18
2018-05-15 15:00:00 28.1 6 Sudeste 22 Este 0 1004 -2 19
2018-05-15 14:00:00 26.6 5 Nordeste 28 Nordeste 0 1004.8 -1.5 21
2018-05-15 13:00:00 25.5 18 Este 32 Nordeste 0 1005.5 -1 24
2018-05-15 12:00:00 24.2 23 Este 37 Este 0 1006 -0.5 27
2018-05-15 11:00:00 21.9 13 Este 24 Este 0 1006.3 0.1 35
2018-05-15 10:00:00 19.5 15 Este 22 Este 0 1006.5 0.9 44
2018-05-15 09:00:00 16.9 11 Este 17 Este 0 1006.5 1.1 56
2018-05-15 08:00:00 13.4 0 Calma 13 Sudeste 0 1006.2 0.9 70
2018-05-15 07:00:00 11.4 4 Este 11 Nordeste 0 1005.6 0.1 76
2018-05-15 06:00:00 12 2 Oeste 15 Este 0 1005.4 -0.2 76
2018-05-15 05:00:00 13 12 Este 17 Este 0 1005.3 -0.7 72
2018-05-15 04:00:00 13.1 0 Calma 11 Este 0 1005.5 -0.3 73
2018-05-15 03:00:00 13.9 0 Calma 11 Sudeste 0 1005.6 -0.1 69
2018-05-15 02:00:00 14.7 0 Calma 5 Este 0 1006 0.6 64
2018-05-15 01:00:00 15.7 0 Calma 9 Sudeste 0 1005.8 1.3 64
2018-05-15 00:00:00 16.7 0 Calma 17 Sudeste 0 1005.7 1.6 59
2018-05-14 23:00:00 18.6 4 Este 15 Norte 0 1005.4 1.4 50
2018-05-14 22:00:00 20 11 Norte 13 Norte 0 1004.5 0.5 44
2018-05-14 21:00:00 23.7 11 Norte 21 Nordeste 0 1004.1 0 32
2018-05-14 20:00:00 25.5 15 Norte 26 Nordeste 0 1004 -0.4 27
2018-05-14 19:00:00 26.4 12 Norte 30 Norte 0 1004 -1.2 26
2018-05-14 18:00:00 26 0 Calma 24 Sudeste 0 1004.1 -1.9 25
2018-05-14 17:00:00 28.1 10 Sur 21 Sur 0 1004.4 -2.4 23
2018-05-14 16:00:00 26.5 8 Sudeste 22 Sur 0 1005.2 -2.4 25
2018-05-14 15:00:00 25.6 7 Sudeste 22 Este 0 1006 -1.9 24
2018-05-14 14:00:00 24.3 7 Nordeste 22 Este 0 1006.8 -1.6 25
2018-05-14 13:00:00 22.7 11 Nordeste 22 Este 0 1007.6 -1.3 29
2018-05-14 12:00:00 21.3 13 Nordeste 28 Este 0 1007.9 -1.3 32
2018-05-14 11:00:00 19.8 17 Este 26 Este 0 1008.4 -0.7 34
2018-05-14 10:00:00 17.3 13 Este 21 Este 0 1008.9 0.3 49
2018-05-14 09:00:00 14.1 0 Calma 8 Sur 0 1009.2 0.7 61
2018-05-14 08:00:00 9.5 0 Calma -- -- 0 1009.1 0.5 77
2018-05-14 07:00:00 7.9 0 Calma 9 Sudoeste 0 1008.6 0.1 83
2018-05-14 06:00:00 8.4 0 Calma 5 Noroeste 0 1008.5 -0.4 81
2018-05-14 05:00:00 9.1 0 Calma 11 Sur 0 1008.6 -0.6 75
2018-05-14 04:00:00 11 5 Sur 15 Sudeste 0 1008.5 -0.8 61
2018-05-14 03:00:00 10.9 6 Sudoeste 13 Sur 0 1008.9 -0.4 68
2018-05-14 02:00:00 14.9 4 Sudoeste 13 Nordeste 0 1009.2 0.1 49
2018-05-14 01:00:00 17 5 Sur -- -- -- 1009.3 0.6 34
2018-05-11 20:00:00 24.7 16 Oeste 30 Oeste 0 1005.7 -0.4 40
2018-05-11 19:00:00 25.5 20 Oeste 33 Oeste 0 1005.7 -0.9 40
2018-05-11 18:00:00 26.4 21 Oeste 37 Oeste 0 1006 -1.1 37
2018-05-11 17:00:00 26.8 17 Oeste 32 Oeste 0 1006.1 -1.5 35
2018-05-11 16:00:00 26.3 15 Oeste 30 Oeste 0 1006.6 -1.7 39
2018-05-11 15:00:00 25.4 14 Oeste 26 Oeste 0 1007.1 -1.5 43
2018-05-11 14:00:00 24.9 9 Sudoeste 22 Oeste 0 1007.6 -1 45
2018-05-11 13:00:00 23.4 9 Sudoeste 22 Oeste 0 1008.3 -0.5 51
2018-05-11 12:00:00 21.2 5 Oeste 11 Oeste 0 1008.6 0.2 58
2018-05-11 11:00:00 19.6 0 Calma 8 Nordeste 0 1008.6 0.6 63
2018-05-11 10:00:00 17.8 0 Calma 8 Sudoeste 0 1008.8 1.6 70
2018-05-11 09:00:00 14.5 0 Calma -- -- 0 1008.4 1.4 82
2018-05-11 08:00:00 11.5 0 Calma -- -- 0 1008 1.2 94
2018-05-11 07:00:00 11.3 0 Calma -- -- 0 1007.2 0.8 93
2018-05-11 06:00:00 11.8 0 Calma -- -- 0 1007 0.3 93
2018-05-11 05:00:00 12.3 0 Calma -- -- 0 1006.8 0 92
2018-05-11 04:00:00 12.8 0 Calma -- -- 0 1006.4 -0.3 89
2018-05-11 03:00:00 13.5 0 Calma -- -- -- 1006.7 0 89
2018-05-11 02:00:00 14.6 6 Sudoeste 15 Oeste 0 1006.8 0.8 82
2018-05-11 01:00:00 15.6 12 Sudoeste 17 Oeste 0 1006.7 1.4 80
2018-05-11 00:00:00 16.6 11 Sudoeste 21 Oeste 0 1006.7 2.2 75
2018-05-10 23:00:00 17.5 10 Sudoeste 15 Sudoeste 0 1006 1.9 70
2018-05-10 22:00:00 19.4 10 Oeste 17 Sudoeste 0 1005.3 1.8 60
2018-05-10 21:00:00 22.4 10 Sudoeste 24 Oeste 0 1004.5 1 49
2018-05-10 20:00:00 24.2 13 Oeste 26 Oeste 0 1004.1 0.3 43
2018-05-10 19:00:00 25.5 13 Oeste 24 Sudoeste 0 1003.5 -0.7 39
2018-05-10 18:00:00 25.9 13 Sudoeste 26 Sudoeste 0 1003.5 -1 38
2018-05-10 17:00:00 25.9 12 Sudoeste 24 Sudoeste 0 1003.8 -0.8 41
2018-05-10 16:00:00 25.8 13 Oeste 21 Oeste 0 1004.2 -0.6 41
2018-05-10 15:00:00 24.2 4 Sudoeste 18 Sur 0 1004.5 -0.6 47
2018-05-10 14:00:00 24.2 6 Oeste 18 Oeste 0 1004.6 -0.4 48
2018-05-10 13:00:00 22.1 6 Sudoeste 17 Sudoeste 0 1004.8 0 55
2018-05-10 12:00:00 20.1 8 Oeste 15 Oeste 0 1005.1 0.5 66
2018-05-10 11:00:00 18.3 6 Sudoeste 13 Sudoeste 0 1005 0.7 76
2018-05-10 10:00:00 17.4 7 Sudoeste 15 Oeste 0 1004.8 1.8 81
2018-05-10 09:00:00 16.6 11 Sudoeste 17 Oeste 0 1004.6 1.3 85
2018-05-10 08:00:00 16 12 Oeste 18 Oeste 0 1004.3 0.8 87
2018-05-10 07:00:00 16 10 Sudoeste 15 Oeste 0 1003 0.1 87
2018-05-10 06:00:00 16 9 Sudoeste 18 Oeste 0 1003.3 0 87
2018-05-10 05:00:00 16.1 10 Sudoeste 22 Sudoeste 0 1003.5 -0.2 86
2018-05-10 04:00:00 16.3 14 Sudoeste 26 Oeste 0 1002.9 -1 86
2018-05-10 03:00:00 16.6 17 Sudoeste -- -- -- 1003.3 -0.4 85
2018-05-10 02:00:00 16.9 16 Sudoeste 24 Sudoeste 0 1003.7 -0.3 83
2018-05-10 01:00:00 17.5 11 Sudoeste 22 Sudoeste 0 1003.9 1 80
2018-05-10 00:00:00 17.9 15 Sudoeste 24 Sudoeste 0 1003.7 1.2 79
2018-05-09 23:00:00 18.6 15 Sudoeste 26 Sudoeste 0 1004 1.8 80
2018-05-09 22:00:00 19 10 Sudoeste 24 Oeste 0 1002.9 0.7 82
2018-05-09 21:00:00 19.4 10 Sudoeste 26 Sudoeste 0 1002.5 0.6 81
2018-05-09 20:00:00 19.6 16 Oeste 33 Sudoeste 0 1002.2 0.1 81
2018-05-09 19:00:00 19.8 27 Sudoeste 39 Sudoeste 0 1002.2 -0.6 80
2018-05-09 18:00:00 22.3 24 Sudoeste -- -- -- 1001.9 -1.3 67
2018-05-09 17:00:00 22.9 20 Oeste 32 Oeste 0 1002.1 -1.3 61
2018-05-09 16:00:00 21.7 19 Oeste 30 Oeste 0 1002.8 -0.6 66
2018-05-09 15:00:00 20.3 16 Oeste 24 Oeste 0 1003.2 -0.4 71
2018-05-09 14:00:00 19.8 14 Oeste 21 Oeste 0 1003.4 -0.4 74
2018-05-09 13:00:00 18.8 4 Oeste 17 Oeste 0 1003.4 -0.1 80
2018-05-09 12:00:00 17.7 9 Sudoeste 17 Sudoeste 0 1003.6 0.5 86
2018-05-09 11:00:00 16.8 13 Sudoeste -- -- -- 1003.8 1.3 91
2018-05-09 10:00:00 16.2 13 Sudoeste 18 Sudoeste 0 1003.5 1.9 95
2018-05-09 09:00:00 16.3 11 Sudoeste 18 Sudoeste 0.1 1003.1 2 96
2018-05-09 08:00:00 16.4 10 Oeste 18 Oeste 0 1002.5 1.5 94
2018-05-09 07:00:00 16.4 14 Oeste 21 Sudoeste 0 1001.6 0.2 93
2018-05-09 06:00:00 16.6 14 Oeste 24 Oeste 0 1001.1 -0.6 91
2018-05-09 05:00:00 16.5 14 Oeste 22 Oeste 0 1001 -0.7 91
2018-05-09 04:00:00 16.6 7 Oeste 15 Oeste 0 1001.4 -0.7 89
2018-05-09 03:00:00 17.2 8 Sudoeste -- -- -- 1001.7 -0.7 87
2018-05-09 02:00:00 17.5 10 Sudoeste 17 Sudoeste 0 1001.7 0.6 84
2018-05-09 01:00:00 17.8 9 Sudoeste 13 Sudoeste 0 1002.1 1.9 83
2018-05-09 00:00:00 18.5 5 Sur 18 Sudoeste 0 1002.4 2 78
2018-05-08 23:00:00 18.6 5 Sudoeste 15 Sudoeste 0 1001.1 1.2 77
2018-05-08 22:00:00 20.4 9 Sudoeste 17 Oeste 0 1000.2 0.5 68
2018-05-08 21:00:00 21.7 9 Oeste 26 Oeste 0 1000.4 0.4 66
2018-05-08 20:00:00 23.3 13 Sudoeste 18 Sudoeste 0 999.9 -0.3 62
2018-05-08 19:00:00 23.1 14 Oeste 24 Oeste 0 999.7 -1 64
2018-05-08 18:00:00 25.3 18 Oeste 26 Oeste 0 1000 -1.1 56
2018-05-08 17:00:00 24.7 8 Oeste 24 Noroeste 0.1 1000.2 -1.5 62
2018-05-08 16:00:00 23.1 14 Noroeste 39 Norte 0 1000.7 -1.8 63
2018-05-08 15:00:00 27.4 11 Oeste 22 Sudoeste 0 1001.1 -2.1 43
2018-05-08 14:00:00 25.6 8 Sudoeste 17 Oeste 0 1001.7 -1.8 49
2018-05-08 13:00:00 23.6 9 Oeste 17 Sudoeste 0 1002.5 -1.4 57
2018-05-08 12:00:00 21.9 4 Oeste -- -- -- 1003.2 -- 62
2018-05-08 11:00:00 19.5 4 Sur 18 Oeste 0 1003.5 -- 69
2018-05-08 10:00:00 17.6 10 Oeste 13 Oeste 0 1003.9 0.9 80
2018-05-08 09:00:00 -- -- -- -- -- -- -- -- --
2018-05-08 08:00:00 -- -- -- -- -- -- -- -- --
2018-05-08 07:00:00 13.6 0 Calma 9 Oeste 0 1003 -0.1 93
2018-05-08 06:00:00 14 6 Sudoeste 9 Oeste 0 1003.1 -0.1 91
2018-05-08 05:00:00 14.4 6 Sudoeste 13 Sur 0 1003.1 -0.4 89
2018-05-08 04:00:00 15 9 Sudoeste 15 Sudoeste 0 1003.1 -0.2 87
2018-05-08 03:00:00 15.7 8 Sudoeste 21 Sudoeste 0 1003.2 0.3 86
2018-05-08 02:00:00 16.8 10 Sudoeste -- -- -- 1003.5 0.9 81
2018-05-08 01:00:00 17.6 12 Sudoeste 22 Sur 0 1003.3 1.7 76
2018-05-08 00:00:00 18.6 0 Calma -- -- -- 1002.9 1.5 75
2018-05-07 23:00:00 19.6 2 Noroeste 15 Sudoeste 0 1002.6 1.6 71
2018-05-07 22:00:00 21.1 10 Oeste 18 Norte 0 1001.6 0.7 64
2018-05-07 21:00:00 23.3 12 Norte 22 Norte 0 1001.4 0.3 53
2018-05-07 20:00:00 25.6 11 Oeste 24 Noroeste 0 1001 -0.3 40
2018-05-07 19:00:00 28.2 10 Oeste 26 Oeste 0 1000.9 -1.3 32
2018-05-07 18:00:00 27.2 9 Noroeste -- -- -- 1001.1 -1.8 35
2018-05-07 17:00:00 28.7 3 Sur -- -- -- 1001.3 -2.3 31
2018-05-07 16:00:00 27.1 4 Sudoeste 17 Sudoeste 0 1002.2 -2.2 35
2018-05-07 15:00:00 26.5 3 Sudoeste 13 Oeste 0 1002.9 -1.9 41
2018-05-07 14:00:00 25.1 0 Calma -- -- -- 1003.6 -1.2 45
2018-05-07 13:00:00 23.8 3 Oeste 13 Oeste 0 1004.4 -0.3 54
2018-05-07 12:00:00 22.5 4 Este 15 Este 0 1004.8 0.2 55
2018-05-07 11:00:00 20.5 3 Este 13 Este 0 1004.8 0.5 64
2018-05-07 10:00:00 17.5 0 Calma 9 Norte 0 1004.7 0.9 81
2018-05-07 09:00:00 15.8 0 Calma -- -- 0 1004.6 0.8 87
2018-05-07 08:00:00 12.4 0 Calma -- -- 0 1004.3 0.5 95
2018-05-07 07:00:00 12.3 0 Calma -- -- 0 1003.8 -0.2 96
2018-05-07 06:00:00 12.6 0 Calma -- -- 0 1003.8 -0.3 96
2018-05-07 05:00:00 13 0 Calma -- -- 0 1003.8 -0.6 95
2018-05-07 04:00:00 13.6 0 Calma -- -- 0 1004 -0.6 95
2018-05-07 03:00:00 14.5 0 Calma -- -- 0 1004.1 -0.3 95
2018-05-07 02:00:00 14.8 0 Calma -- -- 0 1004.4 0.7 95
2018-05-07 01:00:00 14.9 0 Calma 9 Sudoeste 0 1004.6 2 93
2018-05-07 00:00:00 15.8 0 Calma -- -- -- 1004.4 1.5 91
2018-05-06 23:00:00 16.7 5 Este 17 Este 0 1003.7 0.7 86
2018-05-06 22:00:00 17.4 9 Sudoeste 24 Nordeste 0 1002.6 1 84
2018-05-06 21:00:00 17.6 17 Nordeste 35 Nordeste 0.4 1002.9 1.7 80
2018-05-06 20:00:00 17.7 12 Nordeste 46 Oeste 25.2 1003 1.7 86
2018-05-06 19:00:00 26.6 12 Sur 26 Norte 0 1001.6 -0.8 39
2018-05-06 18:00:00 29.1 4 Nordeste 18 Este 0 1001.2 -- 26
2018-05-06 17:00:00 28.4 4 Sur 17 Este 0 1001.3 -2.6 28
2018-05-06 16:00:00 27.4 6 Sudeste 17 Este 0 1002.4 -2 34
2018-05-06 15:00:00 -- -- -- -- -- -- -- -- --
2018-05-06 14:00:00 25.4 9 Este 26 Sudeste 0 1003.9 -1.2 44
2018-05-06 13:00:00 24.1 13 Este 22 Este 0 1004.4 -0.8 48
2018-05-06 12:00:00 22.8 10 Este 22 Nordeste 0 1004.9 -0.4 54
2018-05-06 11:00:00 21.7 13 Nordeste 24 Este 0 1005.1 0.1 55
2018-05-06 10:00:00 20.7 2 Este 11 Este 0 1005.2 0.8 59
2018-05-06 09:00:00 15.8 5 Este 15 Este 0 1005.3 1.3 77
2018-05-06 08:00:00 13.9 0 Calma 8 Este 0 1005 0.8 86
2018-05-06 07:00:00 14.4 0 Calma 8 Sudoeste 0 1004.4 0.1 83
2018-05-06 06:00:00 14.8 0 Calma 5 Oeste 0 1004 -0.2 78
2018-05-06 05:00:00 15.9 5 Oeste 11 Sur 0 1004.2 -0.1 72
2018-05-06 04:00:00 15.7 10 Sudeste 18 Sudeste 0 1004.3 0 73
2018-05-06 03:00:00 15.7 6 Sur 11 Oeste 0 1004.2 0.2 76
2018-05-06 02:00:00 16.4 9 Oeste 15 Oeste 0 1004.3 0.9 70
2018-05-06 01:00:00 17.8 8 Oeste 11 Noroeste 0 1004.3 1.7 64
2018-05-06 00:00:00 20.1 4 Sudoeste 22 Sudeste 0 1004 1.8 54
2018-05-05 23:00:00 19.4 8 Sur 24 Sudeste 0 1003.4 1.4 57
2018-05-05 22:00:00 21.2 0 Calma 5 Oeste 0 1002.6 0.5 47
2018-05-05 21:00:00 25.7 4 Sudoeste 11 Sur 0 1002.2 0.1 31
2018-05-05 20:00:00 28.1 0 Calma 18 Sudoeste 0 1002 -0.4 24
2018-05-05 19:00:00 28.7 9 Oeste 17 Oeste 0 1002.1 -1 22
2018-05-05 18:00:00 28.4 4 Noroeste 13 Oeste 0 1002.1 -1.5 22
2018-05-05 17:00:00 28.6 6 Sudoeste 13 Sur 0 1002.4 -1.6 23
2018-05-05 16:00:00 27.1 7 Este 18 Sudeste 0 1003.1 -1.6 27
2018-05-05 15:00:00 26.8 5 Sur 17 Sudoeste 0 1003.6 -1.4 31
2018-05-05 14:00:00 24.8 3 Sur 13 Sudoeste 0 1004 -1.3 42
2018-05-05 13:00:00 23.4 0 Calma 11 Sur 0 1004.7 -0.8 51
2018-05-05 12:00:00 21.6 3 Sudeste 9 Sudeste 0 1005 -0.5 57
2018-05-05 11:00:00 19 3 Este 11 Sudeste 0 1005.3 0.2 65
2018-05-05 10:00:00 16.6 8 Este 13 Este 0 1005.5 1.1 73
2018-05-05 09:00:00 14 6 Este 11 Este 0 1005.5 1.3 86
2018-05-05 08:00:00 10.2 0 Calma -- -- 0 1005.1 0.8 95
2018-05-05 07:00:00 9.9 0 Calma -- -- 0 1004.4 0.2 94
2018-05-05 06:00:00 10.4 0 Calma -- -- 0 1004.2 -0.1 93
2018-05-05 05:00:00 11.2 0 Calma -- -- 0 1004.3 0 92
2018-05-05 04:00:00 11.8 0 Calma 8 Oeste 0 1004.2 0.4 91
2018-05-05 03:00:00 11.8 6 Oeste 9 Oeste 0 1004.3 0.6 90
2018-05-05 02:00:00 12.6 0 Calma 11 Sudoeste 0 1004.3 0.9 87
2018-05-05 01:00:00 13.9 6 Sudoeste 17 Sudoeste 0 1003.8 1.1 83
2018-05-05 00:00:00 15.2 12 Sudoeste 22 Oeste 0 1003.7 1.7 79
2018-05-04 23:00:00 16.6 15 Oeste 24 Oeste 0 1003.4 2.8 70
2018-05-04 22:00:00 18 17 Oeste 32 Oeste 0 1002.7 2.4 59
2018-05-04 21:00:00 20.4 17 Sudoeste 30 Sudoeste 0 1002 1.8 50
2018-05-04 20:00:00 25.5 0 Calma 8 Sur 0 1000.6 0.5 26
2018-05-04 19:00:00 23.7 0 Calma 11 Sur 0 1000.3 0.1 30
2018-05-04 18:00:00 26.4 8 Sudeste 18 Sudeste 0 1000.2 -0.2 26
2018-05-04 17:00:00 27.1 4 Sur 17 Sur 0 1000.1 -0.7 27
2018-05-04 16:00:00 25.4 10 Noroeste 26 Noroeste 0 1000.2 -1.2 29
2018-05-04 15:00:00 25 6 Sudeste 21 Este 0 1000.4 -1.3 28
2018-05-04 14:00:00 23.4 11 Este 24 Este 0 1000.8 -- 31
2018-05-04 13:00:00 22.1 17 Este 30 Este 0 1001.4 0 36
2018-05-04 12:00:00 20.6 17 Este -- -- -- 1001.7 0.4 41
2018-05-04 11:00:00 -- -- -- -- -- -- -- -- --
2018-05-04 10:00:00 16.7 17 Este 26 Este 0 1001.4 0.8 59
2018-05-04 09:00:00 13.7 13 Este 17 Este 0 1001.3 0.7 87
2018-05-04 08:00:00 11.7 11 Este 15 Este 0 1001.1 0.3 95
2018-05-04 07:00:00 10.2 6 Este 9 Este 0 1000.6 -0.5 95
2018-05-04 06:00:00 10.6 5 Nordeste 8 Nordeste 0 1000.6 -0.4 94
2018-05-04 05:00:00 11.5 0 Calma -- -- 0 1000.8 -0.8 92
2018-05-04 04:00:00 12.4 0 Calma 9 Sudoeste 0 1001.1 -1 88
2018-05-04 03:00:00 14 7 Sudoeste 15 Sudoeste 0 1001 -0.9 86
2018-05-04 02:00:00 15.3 11 Sudoeste 15 Sudoeste 0 1001.6 -0.1 83
2018-05-04 01:00:00 15.8 4 Sur 5 Sur 0 1002.1 1 86
2018-05-04 00:00:00 16.1 5 Norte 9 Norte 0 1001.9 1.3 83
2018-05-03 23:00:00 17.2 0 Calma 9 Sur 0 1001.7 1.3 79
2018-05-03 22:00:00 17.6 7 Este 21 Norte 0 1001.1 1.1 75
2018-05-03 21:00:00 18.3 9 Sudeste 30 Nordeste 0 1000.6 0.2 72
2018-05-03 20:00:00 22.9 17 Norte 33 Norte 0 1000.4 -0.7 41
2018-05-03 19:00:00 24.6 15 Sudoeste 22 Sudoeste 0 1000 -1.9 37
2018-05-03 18:00:00 24.8 14 Sudoeste 26 Sudoeste 0 1000.4 -2.3 37
2018-05-03 17:00:00 23.5 11 Sudoeste 18 Sudoeste 0 1001.1 -2.5 41
2018-05-03 16:00:00 23.9 6 Sur 15 Oeste 0 1001.9 -2.6 40
2018-05-03 15:00:00 23.3 6 Sur 17 Nordeste 0 1002.7 -2.2 39
2018-05-03 14:00:00 22.4 6 Sudeste 18 Este 0 1003.6 -1.6 40
2018-05-03 13:00:00 21 3 Sur 15 Este 0 1004.5 -1 47
2018-05-03 12:00:00 19 3 Este 11 Este 0 1004.9 -0.8 54
2018-05-03 11:00:00 16.7 2 Oeste 9 Oeste 0 1005.2 -0.3 62
2018-05-03 10:00:00 14.4 0 Calma 11 Sudeste 0 1005.5 0.1 67
2018-05-03 09:00:00 11.3 0 Calma -- -- 0 1005.7 0.2 82
2018-05-03 08:00:00 7.8 0 Calma 5 Sudoeste 0 1005.5 -0.4 95
2018-05-03 07:00:00 7.2 0 Calma 8 Sudoeste 0 1005.4 -0.6 94
2018-05-03 06:00:00 8.1 5 Sur 9 Sur 0 1005.5 -0.6 92
2018-05-03 05:00:00 9.4 0 Calma 5 Sur 0 1005.9 -0.8 89
2018-05-03 04:00:00 9.1 0 Calma -- -- 0 1006 -0.7 90
2018-05-03 03:00:00 9.1 2 Oeste 9 Oeste 0 1006.1 -0.4 85
2018-05-03 02:00:00 10.1 3 Oeste 11 Oeste 0 1006.7 0.7 80
2018-05-03 01:00:00 11.1 8 Oeste 15 Sudoeste 0 1006.7 1.4 72
2018-05-03 00:00:00 12.3 10 Sudoeste 22 Sudoeste 0 1006.5 1.7 68
2018-05-02 23:00:00 14.6 15 Sudoeste 24 Oeste 0 1006 1.3 60
2018-05-02 22:00:00 15 8 Oeste 15 Oeste 0 1005.3 0.6 66
2018-05-02 21:00:00 17.8 12 Oeste 21 Oeste 0 1004.8 0.1 49
2018-05-02 20:00:00 19.8 10 Sudoeste 24 Sudoeste 0 1004.7 -0.2 41
2018-05-02 19:00:00 20.8 14 Sudoeste 28 Oeste 0 1004.7 -0.7 35
2018-05-02 18:00:00 22.9 15 Oeste 28 Oeste 0 1004.7 -1.3 31
2018-05-02 17:00:00 22.6 13 Sudoeste 28 Sudoeste 0 1004.9 -1.6 32
2018-05-02 16:00:00 21.8 12 Sudoeste 26 Sudoeste 0 1005.4 -1.8 33
2018-05-02 15:00:00 20.9 10 Sudoeste 18 Sudoeste 0 1006 -1.8 38
2018-05-02 14:00:00 19.7 8 Sur 21 Sur 0 1006.5 -1.4 50
2018-05-02 13:00:00 17.3 4 Sudeste 11 Sudeste 0 1007.2 -0.8 56
2018-05-02 12:00:00 14.3 5 Este 18 Norte 0 1007.8 0.2 71
2018-05-02 11:00:00 12.1 9 Nordeste 17 Nordeste 0 1007.9 0.8 85
2018-05-02 10:00:00 8.9 12 Este 17 Este 0 1008 1.3 99
2018-05-02 09:00:00 7.8 9 Este 17 Este 0 1007.6 0.9 99
2018-05-02 08:00:00 6.4 9 Este 15 Este 0 1007.1 0.3 99
2018-05-02 07:00:00 5.1 0 Calma -- -- 0 1006.7 0 98
2018-05-02 06:00:00 5.5 0 Calma 5 Nordeste 0 1006.7 -0.3 98
2018-05-02 05:00:00 5.9 0 Calma 5 Nordeste 0 1006.8 -0.2 98
2018-05-02 04:00:00 6.5 0 Calma -- -- 0 1006.7 0.1 97
2018-05-02 03:00:00 6.7 0 Calma -- -- 0 1007 0.3 96
2018-05-02 02:00:00 7 0 Calma -- -- 0 1007 1 96
2018-05-02 01:00:00 7.9 0 Calma -- -- 0 1006.6 1.2 94
2018-05-02 00:00:00 8.5 3 Oeste 8 Oeste 0 1006.7 1.7 92
2018-05-01 23:00:00 9.8 5 Este 5 Este 0 1006 1.3 90
2018-05-01 22:00:00 11.7 0 Calma 8 Norte 0 1005.4 0.8 81
2018-05-01 21:00:00 14.5 5 Sudeste 9 Sudeste 0 1005 0.4 64
2018-05-01 20:00:00 15.3 3 Sur 11 Sur 0 1004.7 -0.4 56
2018-05-01 19:00:00 16.6 6 Sudoeste 18 Oeste 0 1004.6 -1.4 52
2018-05-01 18:00:00 17 12 Oeste 22 Oeste 0 1004.6 -1.7 51
2018-05-01 17:00:00 15.8 5 Oeste 17 Oeste 0 1005.1 -1.5 58
2018-05-01 16:00:00 13.3 5 Sudeste 22 Sudoeste 0 1006 0.8 70
2018-05-01 15:00:00 9.9 11 Sudoeste 37 Nordeste 2.3 1006.3 0.3 92
2018-05-01 14:00:00 9.3 17 Nordeste 45 Nordeste 1.5 1006.6 1 85
2018-05-01 13:00:00 15.1 4 Este 13 Este 0 1005.2 -0.3 72
2018-05-01 12:00:00 11.7 5 Sur 17 Oeste 0.3 1006 0.6 86
2018-05-01 11:00:00 11.4 0 Calma 11 Oeste 0.1 1005.6 0.4 85
2018-05-01 10:00:00 10.9 0 Calma 8 Norte 0 1005.5 0.6 85
2018-05-01 09:00:00 8.7 0 Calma -- -- 0 1005.4 0.7 94
2018-05-01 08:00:00 6.2 0 Calma 8 Este 0 1005.2 0.4 96
2018-05-01 07:00:00 6.1 0 Calma 5 Nordeste 0 1004.9 0 95
2018-05-01 06:00:00 6.5 0 Calma 5 Norte 0 1004.7 -0.6 94
2018-05-01 05:00:00 7.1 0 Calma 13 Oeste 0 1004.8 -0.9 94
2018-05-01 04:00:00 7.5 9 Oeste 13 Sudoeste 0 1004.9 -1.1 94
2018-05-01 03:00:00 8 0 Calma 13 Sur 0 1005.3 -0.5 91
2018-05-01 02:00:00 9.2 10 Sur 13 Sur 0 1005.7 0.1 87
2018-05-01 01:00:00 10.1 0 Calma 8 Sudoeste 0 1006 1.1 84
2018-05-01 00:00:00 10.6 7 Sudoeste 13 Sudoeste 0 1005.8 1.5 81
2018-04-30 23:00:00 11.6 9 Sudoeste 11 Sudoeste 0 1005.6 1.7 87
2018-04-30 22:00:00 11.4 7 Oeste 11 Oeste 0 1004.9 1.3 79
2018-04-30 21:00:00 14.1 14 Sudoeste 37 Oeste 0 1004.3 0.5 61
2018-04-30 20:00:00 18.1 21 Oeste 30 Oeste 0 1003.9 -0.1 42
2018-04-30 19:00:00 19.1 14 Sudoeste 24 Sudoeste 0 1003.6 -1.2 38
2018-04-30 18:00:00 17.2 10 Noroeste 30 Norte 0 1003.8 -1.8 44
2018-04-30 17:00:00 20.3 15 Sudoeste 35 Oeste 0 1004 -2.1 34
2018-04-30 16:00:00 19 13 Sudoeste 28 Sudoeste 0 1004.8 -1.7 32
2018-04-30 15:00:00 17.2 10 Oeste 22 Oeste 0 1005.6 -1.1 43
2018-04-30 14:00:00 16.6 10 Oeste 24 Sudoeste 0 1006.1 -0.7 44
2018-04-30 13:00:00 16.6 8 Sudoeste 18 Oeste 0 1006.5 -0.2 47
2018-04-30 12:00:00 15.6 5 Este 13 Este 0 1006.7 0.1 55
2018-04-30 11:00:00 12.8 2 Oeste 9 Sudoeste 0 1006.8 0.6 77
2018-04-30 10:00:00 9.9 0 Calma -- -- 0 1006.7 0.9 89
2018-04-30 09:00:00 8.6 0 Calma -- -- 0 1006.6 0.7 93
2018-04-30 08:00:00 5.4 0 Calma -- -- 0 1006.2 0.1 99
2018-04-30 07:00:00 5.9 0 Calma -- -- 0 1005.8 -0.3 98
2018-04-30 06:00:00 6.6 0 Calma -- -- 0 1005.9 -0.5 98
2018-04-30 05:00:00 6.9 0 Calma -- -- 0 1006.1 -0.7 98
2018-04-30 04:00:00 7.3 0 Calma -- -- 0 1006.1 -0.7 98
2018-04-30 03:00:00 8.1 0 Calma 8 Sur 0 1006.4 -0.3 97
2018-04-30 02:00:00 8.8 0 Calma 5 Norte 0 1006.8 0.2 96
2018-04-30 01:00:00 9.7 0 Calma 11 Norte 0 1006.8 0.8 95
2018-04-30 00:00:00 10.7 0 Calma 4 Nordeste 0 1006.7 1.6 96
2018-04-29 23:00:00 11.1 4 Nordeste 11 Sudoeste 0 1006.6 1.8 94
2018-04-29 22:00:00 12.2 5 Sudoeste 22 Noroeste 0.7 1006 1.2 88
2018-04-29 21:00:00 14.6 14 Sudoeste 35 Oeste 0 1005.1 0.9 66
2018-04-29 20:00:00 16.8 19 Sudoeste 35 Sudoeste 0 1004.8 0.7 53
2018-04-29 19:00:00 17.3 29 Oeste 46 Oeste 0 1004.8 0.2 46
2018-04-29 18:00:00 19 26 Oeste 46 Sudoeste 0 1004.2 -0.9 38
2018-04-29 17:00:00 20.2 30 Oeste 48 Oeste 0 1004.1 -1.6 33
2018-04-29 16:00:00 20 30 Sudoeste 50 Oeste 0 1004.6 -1.3 35
2018-04-29 15:00:00 19.1 26 Sudoeste 46 Sudoeste 0 1005.1 -0.8 40
2018-04-29 14:00:00 17.1 27 Oeste 48 Sudoeste 0 1005.7 0.1 46
2018-04-29 13:00:00 17.5 28 Sudoeste 46 Sudoeste 0 1005.9 0.8 49
2018-04-29 12:00:00 15.8 25 Sudoeste 39 Oeste 0 1005.9 1.4 55
2018-04-29 11:00:00 13.7 24 Sudoeste 37 Oeste 0 1005.6 2 67
2018-04-29 10:00:00 12.2 22 Oeste 35 Oeste 0 1005.1 2.5 74
2018-04-29 09:00:00 9.4 14 Oeste 32 Oeste 0 1004.5 2.6 88
2018-04-29 08:00:00 7.8 11 Oeste 21 Oeste 0 1003.6 2.1 93
2018-04-29 07:00:00 8.6 14 Oeste 30 Oeste 0 1002.6 1.4 88
2018-04-29 06:00:00 9.6 15 Sudoeste 26 Sudoeste 0 1001.9 -- 84
2018-04-29 05:00:00 9.3 13 Sudoeste 24 Sudoeste 0 1001.5 0.3 85
2018-04-29 04:00:00 9.9 17 Oeste 37 Sudoeste 0 1001.2 0 80
2018-04-29 03:00:00 -- -- -- -- -- -- -- -- --
2018-04-29 02:00:00 11.5 19 Sudoeste 42 Oeste 0 1001.2 -- 78
2018-04-29 01:00:00 12.5 21 Sudoeste 41 Sudoeste 0 1001.2 1.1 79
2018-04-29 00:00:00 13.4 23 Sudoeste 42 Sudoeste 0 1001.2 -- 71
2018-04-28 23:00:00 -- -- -- -- -- -- -- -- --
2018-04-28 22:00:00 14.5 27 Oeste 42 Sudoeste 0 1000.1 0.6 60
2018-04-28 21:00:00 -- -- -- -- -- -- -- -- --
2018-04-28 20:00:00 18.4 22 Sudoeste 45 Oeste 0 999.3 -0.8 40
2018-04-28 19:00:00 19.6 23 Sudoeste 45 Oeste 0 999.5 -1.4 37
2018-04-28 18:00:00 20.4 28 Sudoeste 42 Oeste 0 999.8 -1.5 35
2018-04-28 17:00:00 21.1 28 Oeste 46 Oeste 0 1000.1 -- 35
2018-04-28 16:00:00 21 23 Sudoeste -- -- -- 1000.9 -1.9 34
2018-04-28 15:00:00 21 24 Sudoeste 41 Sudoeste 0 1001.3 -1.8 41
2018-04-28 14:00:00 -- -- -- -- -- -- -- -- --
2018-04-28 13:00:00 19 16 Sudoeste 24 Oeste 0 1002.8 0.2 61
2018-04-28 12:00:00 15.8 14 Sudoeste 26 Sudoeste 0 1003.1 1.1 76
2018-04-28 11:00:00 17.2 19 Sudoeste 26 Sudoeste 0 1002.6 0.5 72
2018-04-28 10:00:00 15.7 14 Sudoeste 22 Sudoeste 0 1002.6 0.7 84
2018-04-28 09:00:00 14.8 5 Sudoeste 8 Sudoeste 0 1002 0.1 89
2018-04-28 08:00:00 11.8 4 Sudoeste -- -- 0 1002.1 0 96
2018-04-28 07:00:00 11.3 5 Oeste -- -- 0 1001.9 -0.1 95
2018-04-28 06:00:00 11.6 5 Oeste 9 Sudoeste 0 1001.9 -0.6 95
2018-04-28 05:00:00 12.3 7 Sudoeste 9 Sudoeste 0 1002.1 -0.6 94
2018-04-28 04:00:00 12.9 7 Oeste 9 Oeste 0 1002 -0.7 91
2018-04-28 03:00:00 14.1 8 Sur 11 Sudoeste 0 1002.5 -0.3 88
2018-04-28 02:00:00 14.9 4 Sudoeste 18 Sudoeste 0 1002.7 -0.1 86
2018-04-28 01:00:00 16 10 Sudoeste 22 Sudoeste 0 1002.7 0.3 81
2018-04-28 00:00:00 17.8 16 Sudoeste 28 Sudoeste 0 1002.8 1.3 72